Terminal Aerodrome Forecast
Issued by NWS

Home | Current Version | Previous Version | Text Only | Print | Product List | Glossary On
Versions: 1 2 3 4 5 6 7 8 9 10 11 12 13 14 15 16 17 18 19 20 21 22 23 24 25 26
000
FTUS41 KOKX 280556
TAFSWF
TAF
KSWF 280556Z 2806/2912 00000KT P6SM SCT250
      TEMPO 2808/2812 4SM BR
     FM281200 VRB04KT P6SM FEW250
     FM281600 25006KT P6SM FEW050 FEW250
     FM281800 24009KT P6SM VCSH SCT050 SCT250
     FM290000 VRB03KT P6SM BKN250
     FM290400 00000KT 4SM BR SKC
      AMD NOT SKED=

USA.gov is the U.S. government's official web portal to all federal, state and local government web resources and services.